Time;durP1;ratioP1;P1;durP2;ratioP2;P2;SDS_P1;SDS_P2;PMS_P1;PMS_P2;Temp;Humidity;BMP_temperature;BMP_pressure;BME280_temperature;BME280_humidity;BME280_pressure;Samples;Min_cycle;Max_cycle;Signal;HPM_P1;HPM_P2
2022/11/24 04:01:54;;;;;;;16.83;3.53;;;7.80;99.90;;;;;;6162247;23;20289;-83
2022/11/24 04:04:20;;;;;;;25.88;5.25;;;7.80;99.90;;;;;;6209731;23;20079;-82
2022/11/24 04:06:45;;;;;;;17.90;3.25;;;7.70;99.90;;;;;;6184205;23;20020;-83
2022/11/24 04:09:11;;;;;;;23.50;3.25;;;7.70;99.90;;;;;;6186979;23;20063;-83
2022/11/24 04:14:21;;;;;;;21.13;3.10;;;7.70;99.90;;;;;;6156772;23;20462;-83
2022/11/24 04:16:47;;;;;;;20.80;4.43;;;7.70;99.90;;;;;;6156852;23;20017;-83
2022/11/24 04:19:12;;;;;;;23.63;5.22;;;7.60;99.90;;;;;;6130300;23;20021;-83
2022/11/24 04:21:38;;;;;;;16.67;3.33;;;7.60;99.90;;;;;;6130294;23;20027;-82
2022/11/24 04:24:04;;;;;;;15.27;3.33;;;7.60;99.90;;;;;;6179246;23;20013;-83
2022/11/24 04:26:29;;;;;;;20.33;3.80;;;7.60;99.90;;;;;;6154394;23;20060;-83
2022/11/24 04:28:55;;;;;;;25.02;3.80;;;7.50;99.90;;;;;;6179340;23;20383;-84
2022/11/24 04:31:20;;;;;;;28.40;4.47;;;7.50;99.90;;;;;;6154540;23;20010;-82
2022/11/24 04:33:46;;;;;;;21.17;3.72;;;7.50;99.90;;;;;;6154642;23;20312;-82
2022/11/24 04:36:12;;;;;;;19.27;3.97;;;7.40;99.90;;;;;;6154808;23;20347;-83
2022/11/24 04:38:37;;;;;;;18.63;3.47;;;7.40;99.90;;;;;;6129867;23;20024;-81
2022/11/24 04:41:04;;;;;;;23.70;4.60;;;7.40;99.90;;;;;;6156222;23;20013;-81
2022/11/24 04:43:30;;;;;;;25.83;4.28;;;7.30;99.90;;;;;;6179187;23;20018;-81
2022/11/24 04:45:59;;;;;;;17.17;3.45;;;7.30;99.90;;;;;;6179159;23;20013;-82
2022/11/24 04:48:25;;;;;;;26.23;4.38;;;7.30;99.90;;;;;;6179435;23;20022;-83
2022/11/24 04:50:51;;;;;;;23.80;3.78;;;7.20;99.90;;;;;;6179180;23;20021;-83
2022/11/24 04:53:16;;;;;;;23.77;3.50;;;7.20;99.90;;;;;;6155975;23;20447;-83
2022/11/24 04:55:42;;;;;;;22.83;3.60;;;7.10;99.90;;;;;;6156281;23;20457;-83
2022/11/24 04:58:09;;;;;;;15.70;3.22;;;7.10;99.90;;;;;;6131274;23;20017;-82
2022/11/24 05:00:34;;;;;;;23.90;4.10;;;7.10;99.90;;;;;;6156193;23;20021;-82
2022/11/24 05:03:00;;;;;;;24.88;3.70;;;7.10;99.90;;;;;;6158134;23;20331;-82
2022/11/24 05:05:26;;;;;;;23.95;4.50;;;7.00;99.90;;;;;;6156347;23;20053;-83
2022/11/24 05:07:51;;;;;;;26.58;4.35;;;7.00;99.90;;;;;;6158245;23;20424;-82
2022/11/24 05:10:35;;;;;;;18.70;3.20;;;7.00;99.90;;;;;;6156142;23;20502;-83
2022/11/24 05:13:08;;;;;;;20.38;3.70;;;7.00;99.90;;;;;;6181156;23;20041;-84
2022/11/24 05:15:35;;;;;;;21.65;3.42;;;6.90;99.90;;;;;;6158165;23;20017;-82
2022/11/24 05:18:04;;;;;;;22.10;3.72;;;6.90;99.90;;;;;;6158081;23;20020;-82
2022/11/24 05:20:30;;;;;;;25.60;4.32;;;6.90;99.90;;;;;;6156097;23;20443;-83
2022/11/24 05:22:59;;;;;;;21.13;3.97;;;7.00;99.90;;;;;;6156049;23;20025;-83
2022/11/24 05:25:25;;;;;;;21.63;4.18;;;7.00;99.90;;;;;;6180764;23;20459;-82
2022/11/24 05:27:50;;;;;;;21.55;3.63;;;7.00;99.90;;;;;;6157604;23;20014;-82
2022/11/24 05:30:16;;;;;;;17.13;3.25;;;7.00;99.90;;;;;;6156090;23;20041;-82
2022/11/24 05:32:42;;;;;;;20.23;4.00;;;7.00;99.90;;;;;;6157900;23;20009;-84
2022/11/24 05:35:09;;;;;;;17.55;3.33;;;7.00;99.90;;;;;;6155011;23;20017;-81
2022/11/24 05:37:34;;;;;;;18.52;3.40;;;6.90;99.90;;;;;;6157200;23;20072;-81
2022/11/24 05:40:00;;;;;;;24.33;3.85;;;7.00;99.90;;;;;;6155434;23;20361;-83
2022/11/24 05:42:41;;;;;;;20.27;3.58;;;7.00;99.90;;;;;;6157074;23;20092;-82
2022/11/24 05:45:18;;;;;;;15.95;3.45;;;7.00;99.90;;;;;;6155635;23;20013;-83
2022/11/24 05:47:45;;;;;;;21.75;3.40;;;7.00;99.90;;;;;;6180705;23;20368;-84
2022/11/24 05:50:13;;;;;;;17.83;3.22;;;7.00;99.90;;;;;;6155720;23;20325;-82
2022/11/24 05:52:38;;;;;;;20.80;3.13;;;7.10;99.90;;;;;;6155828;23;20014;-83
2022/11/24 05:55:05;;;;;;;21.67;3.20;;;7.10;99.90;;;;;;6180755;23;20070;-83
2022/11/24 05:57:31;;;;;;;22.77;3.05;;;7.10;99.90;;;;;;6156892;23;20013;-83
2022/11/24 05:59:57;;;;;;;21.20;4.07;;;7.20;99.90;;;;;;6156053;23;20010;-83
2022/11/24 06:02:23;;;;;;;21.90;3.60;;;7.20;99.90;;;;;;6157097;23;20471;-83
2022/11/24 06:04:49;;;;;;;22.40;4.03;;;7.30;99.90;;;;;;6131247;23;20084;-82
2022/11/24 06:07:15;;;;;;;20.25;3.40;;;7.30;99.90;;;;;;6157368;23;20073;-83
2022/11/24 06:09:42;;;;;;;25.45;3.55;;;7.40;99.90;;;;;;6180305;23;20013;-83
2022/11/24 06:12:09;;;;;;;20.00;3.75;;;7.30;99.90;;;;;;6155453;23;20045;-82
2022/11/24 06:14:35;;;;;;;18.33;3.75;;;7.30;99.90;;;;;;6157574;23;20005;-83
2022/11/24 06:17:01;;;;;;;21.10;3.47;;;7.40;99.90;;;;;;6180882;23;20517;-83
2022/11/24 06:19:27;;;;;;;20.90;3.15;;;7.40;99.90;;;;;;6156125;23;20048;-83
2022/11/24 06:21:53;;;;;;;30.90;4.18;;;7.40;99.90;;;;;;6180272;23;20018;-81
2022/11/24 06:24:18;;;;;;;14.23;3.00;;;7.40;99.90;;;;;;6180910;23;20014;-85
2022/11/24 06:26:44;;;;;;;17.95;3.38;;;7.40;99.90;;;;;;6156958;23;20044;-83
2022/11/24 06:29:09;;;;;;;22.02;4.00;;;7.40;99.90;;;;;;6155605;23;20097;-82
2022/11/24 06:31:35;;;;;;;23.00;3.88;;;7.40;99.90;;;;;;6130850;23;20013;-80
2022/11/24 06:34:01;;;;;;;14.43;3.17;;;7.40;99.90;;;;;;6157004;23;20005;-83
2022/11/24 06:36:27;;;;;;;23.60;3.92;;;7.40;99.90;;;;;;6155281;23;20064;-83
2022/11/24 06:38:52;;;;;;;19.58;3.50;;;7.40;99.90;;;;;;6130621;23;20366;-83
2022/11/24 06:41:19;;;;;;;18.90;4.13;;;7.40;99.90;;;;;;6157258;23;20009;-82
2022/11/24 06:43:45;;;;;;;23.58;3.97;;;7.40;99.90;;;;;;6180356;23;20009;-83
2022/11/24 06:46:11;;;;;;;21.52;3.45;;;7.40;99.90;;;;;;6155465;23;20014;-83
2022/11/24 06:48:37;;;;;;;23.50;5.10;;;7.40;99.90;;;;;;6156969;23;20399;-83
2022/11/24 06:51:09;;;;;;;19.83;4.72;;;7.40;99.90;;;;;;6154958;23;20021;-83
2022/11/24 06:53:36;;;;;;;22.50;4.93;;;7.30;99.90;;;;;;6154916;23;20014;-83
2022/11/24 06:56:04;;;;;;;23.98;3.53;;;7.30;99.90;;;;;;6179939;23;20088;-82
2022/11/24 06:58:30;;;;;;;14.05;3.38;;;7.30;99.90;;;;;;6130597;23;20009;-84
2022/11/24 07:00:56;;;;;;;22.75;3.42;;;7.30;99.90;;;;;;6156764;23;20105;-83
2022/11/24 07:03:21;;;;;;;15.10;3.70;;;7.30;99.90;;;;;;6179811;23;20014;-82
2022/11/24 07:05:47;;;;;;;23.63;3.90;;;7.20;99.90;;;;;;6155604;23;20109;-82
2022/11/24 07:08:13;;;;;;;19.05;4.43;;;7.20;99.90;;;;;;6153936;23;20017;-83
2022/11/24 07:10:38;;;;;;;15.57;4.32;;;7.20;99.90;;;;;;6155213;23;20014;-82
2022/11/24 07:13:08;;;;;;;15.23;3.45;;;7.20;99.90;;;;;;6155590;23;20036;-83
2022/11/24 07:15:34;;;;;;;20.38;4.03;;;7.20;99.90;;;;;;6178353;23;20379;-82
2022/11/24 07:18:00;;;;;;;17.05;4.28;;;7.20;99.90;;;;;;6178236;23;20045;-82
2022/11/24 07:20:25;;;;;;;21.48;4.63;;;7.20;99.90;;;;;;6153375;23;20351;-79
2022/11/24 07:22:55;;;;;;;15.32;4.15;;;7.10;99.90;;;;;;6155319;23;20340;-82
2022/11/24 07:25:21;;;;;;;18.48;4.35;;;7.10;99.90;;;;;;6155441;23;20006;-83
2022/11/24 07:27:46;;;;;;;22.80;4.97;;;7.10;99.90;;;;;;6154961;23;20435;-83
2022/11/24 07:30:12;;;;;;;20.33;4.63;;;7.10;99.90;;;;;;6153520;23;20021;-82
2022/11/24 07:32:38;;;;;;;21.95;5.10;;;7.10;99.90;;;;;;6178272;23;20056;-83
2022/11/24 07:35:04;;;;;;;26.13;4.90;;;7.10;99.90;;;;;;6153381;23;20477;-83
2022/11/24 07:37:30;;;;;;;24.33;4.97;;;7.10;99.90;;;;;;6153452;23;20017;-83
2022/11/24 07:39:55;;;;;;;21.60;4.60;;;7.00;99.90;;;;;;6154447;23;20037;-83
2022/11/24 07:42:21;;;;;;;19.02;4.72;;;7.00;99.90;;;;;;6154145;23;20432;-83
2022/11/24 07:44:47;;;;;;;33.25;6.82;;;7.00;99.90;;;;;;6156644;23;20080;-83
2022/11/24 07:47:13;;;;;;;29.35;5.28;;;7.10;99.90;;;;;;6156589;23;20006;-85
2022/11/24 07:49:38;;;;;;;21.35;5.80;;;7.10;99.90;;;;;;6154529;23;20017;-83
2022/11/24 07:52:04;;;;;;;28.95;6.57;;;7.00;99.90;;;;;;6154502;23;20015;-83
2022/11/24 07:54:30;;;;;;;23.13;5.45;;;7.10;99.90;;;;;;6154572;23;20387;-82
2022/11/24 07:56:56;;;;;;;21.27;6.35;;;7.00;99.90;;;;;;6154451;23;20021;-83
2022/11/24 07:59:21;;;;;;;30.13;6.03;;;7.00;99.90;;;;;;6154304;23;20064;-82
2022/11/24 08:01:47;;;;;;;20.23;5.63;;;7.00;99.90;;;;;;6154301;23;20013;-86
2022/11/24 08:04:13;;;;;;;28.63;7.00;;;7.00;99.90;;;;;;6154473;23;20077;-83
2022/11/24 08:06:39;;;;;;;23.27;6.25;;;7.00;99.90;;;;;;6179096;23;20387;-82
2022/11/24 08:09:04;;;;;;;22.27;5.88;;;7.00;99.90;;;;;;6131200;23;20023;-83
2022/11/24 08:11:31;;;;;;;22.92;6.75;;;7.00;99.90;;;;;;6154222;23;20013;-83
2022/11/24 08:13:57;;;;;;;23.05;6.57;;;7.00;99.90;;;;;;6129760;23;20466;-82
2022/11/24 08:16:23;;;;;;;19.95;5.55;;;7.00;99.90;;;;;;6156124;23;20013;-84
2022/11/24 08:18:53;;;;;;;22.50;6.32;;;7.10;99.90;;;;;;6154325;23;20053;-81
2022/11/24 08:21:19;;;;;;;21.13;6.43;;;7.10;99.90;;;;;;6178989;23;20013;-82
2022/11/24 08:23:45;;;;;;;16.50;6.03;;;7.20;99.90;;;;;;6179092;23;20010;-83
2022/11/24 08:26:15;;;;;;;18.33;5.80;;;7.20;99.90;;;;;;6155067;23;20049;-81
2022/11/24 08:28:41;;;;;;;17.55;5.85;;;7.30;99.90;;;;;;6179343;23;20044;-82
2022/11/24 08:31:20;;;;;;;16.10;4.57;;;7.30;99.90;;;;;;6155802;23;20006;-81
2022/11/24 08:33:46;;;;;;;14.88;4.47;;;7.40;99.90;;;;;;6129803;23;20013;-81
2022/11/24 08:36:15;;;;;;;19.63;4.60;;;7.60;99.90;;;;;;6154663;23;20428;-82
2022/11/24 08:38:41;;;;;;;13.55;4.30;;;7.70;99.90;;;;;;6156399;23;20018;-84
2022/11/24 08:41:10;;;;;;;13.20;4.03;;;7.90;99.90;;;;;;6154228;23;20080;-83
2022/11/24 08:43:36;;;;;;;10.35;4.70;;;8.00;99.90;;;;;;6154149;23;20087;-82
2022/11/24 08:46:05;;;;;;;9.43;3.35;;;8.10;99.90;;;;;;6156141;23;20009;-82
2022/11/24 08:48:31;;;;;;;13.73;4.15;;;8.20;99.90;;;;;;6178914;23;20017;-81
2022/11/24 08:50:58;;;;;;;11.05;3.33;;;8.20;99.90;;;;;;6155776;23;20297;-82
2022/11/24 08:53:24;;;;;;;11.93;3.17;;;8.20;99.90;;;;;;6156413;23;20365;-83
2022/11/24 08:55:50;;;;;;;7.47;2.67;;;8.20;99.90;;;;;;6156347;23;20013;-82
2022/11/24 08:58:16;;;;;;;7.75;2.90;;;8.20;99.90;;;;;;6154382;23;20359;-82
2022/11/24 09:00:42;;;;;;;11.75;3.60;;;8.20;99.90;;;;;;6178654;23;20028;-80
2022/11/24 09:03:10;;;;;;;9.30;3.03;;;8.10;99.90;;;;;;6156201;23;20024;-82
2022/11/24 09:05:37;;;;;;;10.60;2.65;;;8.10;99.90;;;;;;6155865;23;20052;-83
2022/11/24 09:08:03;;;;;;;8.18;2.50;;;8.10;99.90;;;;;;6154627;23;20028;-82
2022/11/24 09:10:29;;;;;;;9.35;2.70;;;8.10;99.90;;;;;;6156953;23;20014;-82
2022/11/24 09:12:54;;;;;;;8.48;2.78;;;8.10;99.90;;;;;;6158576;23;20090;-82
2022/11/24 09:15:20;;;;;;;6.90;2.15;;;8.10;99.90;;;;;;6168902;23;20032;-80
2022/11/24 09:17:45;;;;;;;9.25;2.40;;;8.10;99.90;;;;;;6178784;23;20017;-80
2022/11/24 09:20:12;;;;;;;9.40;2.55;;;8.10;99.90;;;;;;6166129;23;20010;-83
2022/11/24 09:22:39;;;;;;;11.02;2.70;;;8.20;99.90;;;;;;6155975;23;20325;-81
2022/11/24 09:25:06;;;;;;;8.00;2.28;;;8.10;99.90;;;;;;6156068;23;20012;-84
2022/11/24 09:27:32;;;;;;;7.43;2.17;;;8.10;99.90;;;;;;6154779;23;20072;-82
2022/11/24 09:29:57;;;;;;;8.77;2.63;;;8.20;99.90;;;;;;6156459;23;20009;-82
2022/11/24 09:32:23;;;;;;;5.25;2.20;;;8.20;99.90;;;;;;6156478;23;20096;-81
2022/11/24 09:34:50;;;;;;;7.40;2.40;;;8.20;99.90;;;;;;6154015;23;20495;-83
2022/11/24 09:37:16;;;;;;;7.50;2.08;;;8.30;99.90;;;;;;6178964;23;20093;-83
2022/11/24 09:39:42;;;;;;;9.60;2.20;;;8.30;99.90;;;;;;6154105;23;20014;-82
2022/11/24 09:42:32;;;;;;;6.22;2.17;;;8.30;99.90;;;;;;6153910;23;20017;-81
2022/11/24 09:45:25;;;;;;;5.57;1.85;;;8.30;99.90;;;;;;6156227;23;20010;-81
2022/11/24 09:48:00;;;;;;;6.85;2.30;;;8.40;99.90;;;;;;6180976;23;20072;-83
2022/11/24 09:50:34;;;;;;;8.90;2.53;;;8.40;99.90;;;;;;6180481;23;20451;-82
2022/11/24 09:53:25;;;;;;;8.45;2.40;;;8.50;99.90;;;;;;6157708;23;20033;-82
2022/11/24 09:55:54;;;;;;;6.28;2.45;;;8.50;99.90;;;;;;6155976;23;20017;-82
2022/11/24 09:58:29;;;;;;;4.70;2.45;;;8.60;99.90;;;;;;6155922;23;20025;-81
2022/11/24 10:00:55;;;;;;;7.65;2.88;;;8.80;99.90;;;;;;6156325;23;20043;-82
2022/11/24 10:03:42;;;;;;;7.28;3.47;;;8.90;99.90;;;;;;6180881;23;20013;-81
2022/11/24 10:06:33;;;;;;;8.70;3.42;;;9.00;99.90;;;;;;6155476;23;20127;-82
2022/11/24 10:09:32;;;;;;;10.38;3.67;;;9.10;99.90;;;;;;6155559;23;20527;-82
2022/11/24 10:12:22;;;;;;;7.95;3.15;;;9.20;99.90;;;;;;6155453;23;20009;-82
2022/11/24 10:15:04;;;;;;;7.40;3.17;;;9.30;99.90;;;;;;6155731;23;20013;-82
2022/11/24 10:17:48;;;;;;;8.40;3.53;;;9.40;99.90;;;;;;6155743;23;20036;-82
2022/11/24 10:20:29;;;;;;;12.73;3.90;;;9.60;99.90;;;;;;6155405;23;20510;-83
2022/11/24 10:23:15;;;;;;;9.13;3.03;;;9.60;99.90;;;;;;6155392;23;20052;-82
2022/11/24 10:25:55;;;;;;;14.88;4.90;;;9.70;99.90;;;;;;6140064;23;20013;-82
2022/11/24 10:28:33;;;;;;;10.10;3.22;;;9.80;99.90;;;;;;6155548;23;20022;-82
2022/11/24 10:31:20;;;;;;;8.88;3.03;;;9.90;99.90;;;;;;6157194;23;20010;-82
2022/11/24 10:33:47;;;;;;;9.15;4.00;;;10.00;99.90;;;;;;6155696;23;20356;-82
2022/11/24 10:36:33;;;;;;;8.13;2.95;;;10.10;99.90;;;;;;6131040;23;20045;-82
2022/11/24 10:39:02;;;;;;;;;;;10.20;99.90;;;;;;6140374;23;20181;-81
2022/11/24 10:41:45;;;;;;;10.82;3.25;;;10.30;99.90;;;;;;6155387;23;19919;-82
2022/11/24 10:44:13;;;;;;;12.02;3.80;;;10.40;99.90;;;;;;6156300;23;20056;-81
2022/11/24 10:46:39;;;;;;;10.82;2.83;;;10.40;99.90;;;;;;6180135;23;20131;-81
2022/11/24 10:49:05;;;;;;;7.07;3.13;;;10.40;99.90;;;;;;6155323;23;20348;-81
2022/11/24 10:51:51;;;;;;;9.77;3.00;;;10.50;99.90;;;;;;6155250;23;20048;-83
2022/11/24 10:54:20;;;;;;;10.75;3.10;;;10.60;99.90;;;;;;6156416;23;20081;-83
2022/11/24 10:56:49;;;;;;;16.33;4.30;;;10.70;99.90;;;;;;6155225;23;20026;-82
2022/11/24 10:59:24;;;;;;;8.63;3.28;;;10.90;99.90;;;;;;6130700;23;20018;-83
2022/11/24 11:01:53;;;;;;;12.32;3.45;;;11.10;99.90;;;;;;6156383;23;20452;-80
2022/11/24 11:04:24;;;;;;;11.85;2.90;;;11.20;99.90;;;;;;6180464;23;20013;-83
2022/11/24 11:06:50;;;;;;;14.15;3.65;;;11.40;99.90;;;;;;6180520;23;20013;-82
2022/11/24 11:09:21;;;;;;;10.40;3.08;;;11.40;99.90;;;;;;6156851;23;20084;-83
2022/11/24 11:11:47;;;;;;;11.23;3.28;;;11.60;99.90;;;;;;6179773;23;20049;-81
2022/11/24 11:14:29;;;;;;;9.45;3.08;;;11.70;99.90;;;;;;6154973;23;20018;-83
2022/11/24 11:16:56;;;;;;;10.43;3.15;;;11.70;99.90;;;;;;6179698;23;20037;-83
2022/11/24 11:19:40;;;;;;;10.77;2.90;;;11.70;99.90;;;;;;6156589;23;20017;-82
2022/11/24 11:22:09;;;;;;;13.48;3.88;;;11.70;99.90;;;;;;6156206;23;20053;-83
2022/11/24 11:24:35;;;;;;;11.38;3.03;;;11.70;99.90;;;;;;6156530;23;20009;-83
2022/11/24 11:27:04;;;;;;;9.82;3.08;;;11.70;99.90;;;;;;6157276;23;20103;-81
2022/11/24 11:29:30;;;;;;;14.40;3.38;;;11.60;99.90;;;;;;6155013;23;20056;-82
2022/11/24 11:32:15;;;;;;;14.43;3.55;;;11.60;99.90;;;;;;6154563;23;20021;-82
2022/11/24 11:34:41;;;;;;;9.75;2.85;;;11.50;99.90;;;;;;6179611;23;20020;-83
2022/11/24 11:37:11;;;;;;;11.40;3.40;;;11.50;99.90;;;;;;6154687;23;20477;-82
2022/11/24 11:39:48;;;;;;;13.30;3.22;;;11.50;99.90;;;;;;6156630;23;20387;-81
2022/11/24 11:42:36;;;;;;;13.38;3.45;;;11.60;99.90;;;;;;6154844;23;20470;-84
2022/11/24 11:45:20;;;;;;;13.77;4.00;;;11.50;99.90;;;;;;6154722;23;20013;-81
2022/11/24 11:48:00;;;;;;;11.10;3.38;;;11.50;99.90;;;;;;6156947;23;20021;-81
2022/11/24 11:50:51;;;;;;;13.02;3.45;;;11.60;99.90;;;;;;6156333;23;20036;-78
2022/11/24 11:53:44;;;;;;;10.57;3.85;;;11.80;99.90;;;;;;6154566;23;20013;-80
2022/11/24 11:56:27;;;;;;;9.43;3.00;;;11.90;99.90;;;;;;6156366;23;20331;-77
2022/11/24 11:59:11;;;;;;;13.98;3.45;;;11.90;99.90;;;;;;6154397;23;20431;-79
2022/11/24 12:01:59;;;;;;;9.65;3.50;;;12.00;99.90;;;;;;6154577;23;20014;-78
2022/11/24 12:04:52;;;;;;;14.18;2.63;;;12.10;99.90;;;;;;6154529;23;20088;-81
2022/11/24 12:07:27;;;;;;;14.48;2.80;;;12.10;99.90;;;;;;6154507;23;20009;-81
2022/11/24 12:10:13;;;;;;;12.23;2.85;;;12.00;99.90;;;;;;6154542;23;20049;-80
2022/11/24 12:12:57;;;;;;;;;;;12.00;99.90;;;;;;6110441;23;20010;-80
2022/11/24 12:15:32;;;;;;;12.40;2.47;;;12.00;99.90;;;;;;6154359;23;19912;-79
2022/11/24 12:18:31;;;;;;;11.70;2.70;;;12.10;99.90;;;;;;6154325;23;20045;-79
2022/11/24 12:21:05;;;;;;;16.08;3.20;;;12.10;99.90;;;;;;6154203;23;20420;-78
2022/11/24 12:23:52;;;;;;;15.20;3.07;;;12.20;99.90;;;;;;6155904;23;20045;-79
2022/11/24 12:26:18;;;;;;;13.50;3.22;;;12.30;99.90;;;;;;6154261;23;20014;-78
2022/11/24 12:29:05;;;;;;;16.63;3.40;;;12.40;99.90;;;;;;6154309;23;20459;-79
2022/11/24 12:31:58;;;;;;;13.25;2.67;;;12.50;99.90;;;;;;6154125;23;20447;-80
2022/11/24 12:34:49;;;;;;;12.60;3.00;;;12.60;99.90;;;;;;6154286;23;20041;-80
2022/11/24 12:37:29;;;;;;;12.50;3.25;;;12.50;99.90;;;;;;6154500;23;20025;-80
2022/11/24 12:40:17;;;;;;;13.13;3.28;;;12.50;99.90;;;;;;6154600;23;20045;-78
2022/11/24 12:43:08;;;;;;;11.07;2.25;;;12.50;99.90;;;;;;6154189;23;20022;-81
2022/11/24 12:45:59;;;;;;;13.70;2.20;;;12.40;99.90;;;;;;6154121;23;20020;-77
2022/11/24 12:48:39;;;;;;;14.13;2.88;;;12.50;99.90;;;;;;6154113;23;20425;-79
2022/11/24 12:51:17;;;;;;;8.70;2.10;;;12.50;99.90;;;;;;6155064;23;20049;-80
2022/11/24 12:53:45;;;;;;;13.05;3.03;;;12.40;99.90;;;;;;6155152;23;20335;-79
2022/11/24 12:56:14;;;;;;;13.23;2.58;;;12.30;99.90;;;;;;6154227;23;20072;-81
2022/11/24 12:58:49;;;;;;;13.32;2.42;;;12.30;99.90;;;;;;6155654;23;20041;-80
2022/11/24 13:01:29;;;;;;;31.40;3.83;;;12.20;99.90;;;;;;6153970;23;20069;-79
2022/11/24 13:04:15;;;;;;;20.75;3.40;;;12.20;99.90;;;;;;6155184;23;20742;-79
2022/11/24 13:06:40;;;;;;;;;;;12.20;99.90;;;;;;6154464;23;20451;-81
2022/11/24 13:09:08;;;;;;;;;;;12.40;99.90;;;;;;6154622;23;19916;-79
2022/11/24 13:11:47;;;;;;;13.50;3.33;;;12.40;99.90;;;;;;6154023;23;19963;-81
2022/11/24 13:14:29;;;;;;;13.70;2.42;;;12.60;99.90;;;;;;6154166;23;20013;-80
2022/11/24 13:17:00;;;;;;;17.42;2.33;;;12.80;99.90;;;;;;6154186;23;20020;-78
2022/11/24 13:19:36;;;;;;;14.95;2.40;;;12.90;99.90;;;;;;6180605;23;20036;-80
2022/11/24 13:22:01;;;;;;;;;;;12.80;99.90;;;;;;6131721;23;20039;-79
2022/11/24 13:24:34;;;;;;;13.63;2.35;;;12.60;99.90;;;;;;6156917;23;19912;-78
2022/11/24 13:27:15;;;;;;;16.13;2.78;;;12.60;99.90;;;;;;6131227;23;20024;-79
2022/11/24 13:29:45;;;;;;;20.98;3.10;;;12.70;99.90;;;;;;6155863;23;20324;-80
2022/11/24 13:32:10;;;;;;;17.70;2.70;;;12.70;99.90;;;;;;6180676;23;20012;-80
2022/11/24 13:34:39;;;;;;;15.57;3.45;;;12.80;99.90;;;;;;6155802;23;20014;-81
2022/11/24 13:37:24;;;;;;;12.48;3.13;;;12.70;99.90;;;;;;6155786;23;20443;-80
2022/11/24 13:39:53;;;;;;;20.65;3.17;;;12.60;99.90;;;;;;6155806;23;20020;-79
2022/11/24 13:42:20;;;;;;;16.75;2.95;;;12.50;99.90;;;;;;6155639;23;20092;-78
2022/11/24 13:44:57;;;;;;;22.55;3.65;;;12.30;99.90;;;;;;6180632;23;20017;-79
2022/11/24 13:47:35;;;;;;;20.15;3.40;;;12.20;99.90;;;;;;6155639;23;20045;-77
2022/11/24 13:50:12;;;;;;;17.25;2.60;;;12.20;99.90;;;;;;6157275;23;20514;-82
2022/11/24 13:53:06;;;;;;;13.68;2.80;;;12.30;99.90;;;;;;6157199;23;20448;-79
2022/11/24 13:55:37;;;;;;;15.55;2.70;;;12.30;99.90;;;;;;6155700;23;20021;-80
2022/11/24 13:58:49;;;;;;;16.92;4.05;;;12.20;99.90;;;;;;6157585;23;20016;-81
2022/11/24 14:01:35;;;;;;;14.32;2.42;;;12.20;99.90;;;;;;6150996;23;20009;-81
2022/11/24 14:04:10;;;;;;;18.90;3.40;;;12.40;99.90;;;;;;6180517;23;20010;-81
2022/11/24 14:06:51;;;;;;;17.23;2.50;;;12.60;99.90;;;;;;6180590;23;20021;-78
2022/11/24 14:09:25;;;;;;;12.73;2.92;;;12.70;99.90;;;;;;6157439;23;20017;-81
2022/11/24 14:12:09;;;;;;;19.83;3.72;;;12.70;99.90;;;;;;6155411;23;20020;-82
2022/11/24 14:14:34;;;;;;;21.58;3.60;;;12.70;99.90;;;;;;6155640;23;20014;-80
2022/11/24 14:17:15;;;;;;;19.75;4.13;;;12.60;99.90;;;;;;6156960;23;20013;-81
2022/11/24 14:19:43;;;;;;;17.55;2.90;;;12.40;99.90;;;;;;6156816;23;20068;-78
2022/11/24 14:22:20;;;;;;;12.07;3.17;;;12.20;99.90;;;;;;6180227;23;20041;-78
2022/11/24 14:24:58;;;;;;;15.60;3.08;;;12.00;99.90;;;;;;6180668;23;20021;-81
2022/11/24 14:27:30;;;;;;;20.25;3.30;;;11.90;99.90;;;;;;6180104;23;20010;-77
2022/11/24 14:29:58;;;;;;;13.95;2.78;;;11.70;99.90;;;;;;6154977;23;20085;-79
2022/11/24 14:32:24;;;;;;;18.90;2.92;;;11.60;99.90;;;;;;6180430;23;20010;-80
2022/11/24 14:34:50;;;;;;;21.17;3.28;;;11.50;99.90;;;;;;6160952;23;20016;-77
2022/11/24 14:37:18;;;;;;;16.05;2.72;;;11.40;99.90;;;;;;6167930;23;20027;-74
2022/11/24 14:39:43;;;;;;;13.20;2.60;;;11.30;99.90;;;;;;6165779;23;20108;-79
2022/11/24 14:42:21;;;;;;;20.52;3.75;;;11.20;99.90;;;;;;6158309;23;20021;-78
2022/11/24 14:44:58;;;;;;;15.68;3.50;;;11.10;99.90;;;;;;6180728;23;20017;-79
2022/11/24 14:47:31;;;;;;;19.52;3.88;;;11.10;99.90;;;;;;6155379;23;20081;-80
2022/11/24 14:50:10;;;;;;;16.58;3.13;;;11.00;99.90;;;;;;6180168;23;20451;-80
2022/11/24 14:53:07;;;;;;;19.50;3.72;;;10.90;99.90;;;;;;6155247;23;20050;-81
2022/11/24 14:55:35;;;;;;;20.05;3.83;;;10.90;99.90;;;;;;6150679;23;20041;-80
2022/11/24 14:58:01;;;;;;;16.42;3.47;;;10.80;99.90;;;;;;6155122;23;20016;-80
2022/11/24 15:00:31;;;;;;;12.73;2.85;;;10.70;99.90;;;;;;6154590;23;20095;-81
2022/11/24 15:03:00;;;;;;;18.08;4.00;;;10.60;99.90;;;;;;6179969;23;20013;-78
2022/11/24 15:05:57;;;;;;;16.92;3.67;;;10.60;99.90;;;;;;6154722;23;20014;-79
2022/11/24 15:08:25;;;;;;;17.67;4.13;;;10.50;99.90;;;;;;6154990;23;20017;-77
2022/11/24 15:10:59;;;;;;;15.20;3.35;;;10.40;99.90;;;;;;6179575;23;20478;-80
2022/11/24 15:13:26;;;;;;;23.70;3.70;;;10.30;99.90;;;;;;6155150;23;20014;-80
2022/11/24 15:15:58;;;;;;;20.10;4.10;;;10.30;99.90;;;;;;6179772;23;20439;-77
2022/11/24 15:18:47;;;;;;;25.63;4.85;;;10.20;99.90;;;;;;6156511;23;20324;-80
2022/11/24 15:21:14;;;;;;;22.38;4.50;;;10.10;99.90;;;;;;6154837;23;20041;-79
2022/11/24 15:23:41;;;;;;;21.63;4.30;;;10.10;99.90;;;;;;6156543;23;20049;-77
2022/11/24 15:26:10;;;;;;;20.90;3.90;;;10.00;99.90;;;;;;6154701;23;20124;-81
2022/11/24 15:28:35;;;;;;;15.73;3.65;;;9.90;99.90;;;;;;6155732;23;20017;-78
2022/11/24 15:31:08;;;;;;;25.15;4.40;;;9.90;99.90;;;;;;6154522;23;20059;-78
2022/11/24 15:33:34;;;;;;;25.13;4.50;;;9.80;99.90;;;;;;6179552;23;20010;-77
2022/11/24 15:35:59;;;;;;;19.13;3.92;;;9.70;99.90;;;;;;6130086;23;20482;-79
2022/11/24 15:38:25;;;;;;;22.52;4.93;;;9.70;99.90;;;;;;6154838;23;20351;-78
2022/11/24 15:40:54;;;;;;;16.65;3.75;;;9.60;99.90;;;;;;6154596;23;20017;-81
2022/11/24 15:43:28;;;;;;;20.30;3.42;;;9.60;99.90;;;;;;6156585;23;20062;-79
2022/11/24 15:45:54;;;;;;;23.33;3.90;;;9.50;99.90;;;;;;6154622;23;20010;-78
2022/11/24 15:48:20;;;;;;;19.48;3.53;;;9.50;99.90;;;;;;6156075;23;20237;-80
2022/11/24 15:50:46;;;;;;;23.13;4.32;;;9.40;99.90;;;;;;6154533;23;20013;-78
2022/11/24 15:53:39;;;;;;;20.65;3.63;;;9.40;99.90;;;;;;6179563;23;20309;-79
2022/11/24 15:56:09;;;;;;;21.83;4.95;;;9.40;99.90;;;;;;6172983;23;20044;-79
2022/11/24 15:58:35;;;;;;;22.58;4.97;;;9.20;99.90;;;;;;6156293;23;20020;-78
2022/11/24 16:01:01;;;;;;;20.25;4.00;;;9.20;99.90;;;;;;6154262;23;20022;-78
2022/11/24 16:03:26;;;;;;;17.33;3.75;;;9.10;99.90;;;;;;6157019;23;20013;-80
2022/11/24 16:05:54;;;;;;;17.65;3.63;;;9.10;99.90;;;;;;6154470;23;20017;-79
2022/11/24 16:08:20;;;;;;;17.63;3.83;;;9.10;99.90;;;;;;6130068;23;20083;-80
2022/11/24 16:10:45;;;;;;;18.77;4.32;;;9.00;99.90;;;;;;6156266;23;20328;-80
2022/11/24 16:13:11;;;;;;;21.58;4.20;;;8.90;99.90;;;;;;6154749;23;20431;-78
2022/11/24 16:15:37;;;;;;;17.60;3.75;;;8.90;99.90;;;;;;6156343;23;20194;-80
2022/11/24 16:18:04;;;;;;;20.50;4.47;;;8.90;99.90;;;;;;6154744;23;20025;-80
2022/11/24 16:20:33;;;;;;;26.90;5.63;;;8.80;99.90;;;;;;6180145;23;20049;-81
2022/11/24 16:22:58;;;;;;;24.95;5.07;;;8.80;99.90;;;;;;6179253;23;20014;-81
2022/11/24 16:25:24;;;;;;;21.80;4.53;;;8.80;99.90;;;;;;6154161;23;20024;-81
2022/11/24 16:27:50;;;;;;;19.05;4.70;;;8.70;99.90;;;;;;6154811;23;20019;-82
2022/11/24 16:30:16;;;;;;;16.15;3.60;;;8.70;99.90;;;;;;6156125;23;20387;-80
2022/11/24 16:32:42;;;;;;;26.42;5.00;;;8.70;99.90;;;;;;6179118;23;20076;-81
2022/11/24 16:35:08;;;;;;;24.90;4.47;;;8.60;99.90;;;;;;6179039;23;20023;-83
2022/11/24 16:37:33;;;;;;;22.65;4.10;;;8.60;99.90;;;;;;6179021;23;20013;-79
2022/11/24 16:40:01;;;;;;;27.00;6.88;;;8.50;99.90;;;;;;6156019;23;20092;-83
2022/11/24 16:42:27;;;;;;;20.58;4.60;;;8.60;99.90;;;;;;6154057;23;20455;-82
2022/11/24 16:44:53;;;;;;;21.17;4.55;;;8.50;99.90;;;;;;6179999;23;20014;-81
2022/11/24 16:47:19;;;;;;;20.13;4.72;;;8.50;99.90;;;;;;6156093;23;20428;-81
2022/11/24 16:49:45;;;;;;;27.88;5.47;;;8.50;99.90;;;;;;6154254;23;20018;-81
2022/11/24 16:52:11;;;;;;;29.30;4.93;;;8.40;99.90;;;;;;6155063;23;20013;-83
2022/11/24 16:54:37;;;;;;;24.38;4.90;;;8.40;99.90;;;;;;6181227;23;20025;-82
2022/11/24 16:57:03;;;;;;;30.33;5.45;;;8.40;99.90;;;;;;6156609;23;20018;-81
2022/11/24 16:59:29;;;;;;;25.55;4.97;;;8.40;99.90;;;;;;6132280;23;20075;-82
2022/11/24 17:01:54;;;;;;;17.52;4.72;;;8.40;99.90;;;;;;6158321;23;20016;-82
2022/11/24 17:04:20;;;;;;;23.48;5.28;;;8.40;99.90;;;;;;6181022;23;20024;-81
2022/11/24 17:06:46;;;;;;;25.70;4.63;;;8.40;99.90;;;;;;6157469;23;20072;-83
2022/11/24 17:09:11;;;;;;;21.15;5.13;;;8.30;99.90;;;;;;6156444;23;20020;-81